FDX5384 LFPG-OMDW
Flight info
| Callsign | FDX5384 |
|---|---|
| Flight time | N/A |
| Altitude | 37000 |
| Route | LANVI DCT DEVDI DCT RIPUS DCT RESIA DCT LABIN DCT PINDO UL607 ATV DCT PAXIS/N0471F390 L607 NABSI P557 OBRAN L321 REXUM DCT WEJ L604 GAS L308 SILBA P559 NALPO/N0488F350 P559 AMBOV Q322 DATOB |
| Aircraft | B77L/H-SDE1E2E3FGHIJ2J3J4J5M1RWXY/LB1D1 |
Departure
| Time | N/A |
|---|---|
| Airport | Charles de Gaulle International Airport (LFPG) |
Arrival
| Time | 2026-04-24 08:03 |
|---|---|
| Airport | Al Maktoum International Airport (OMDW) |
| Time | Latitude | Longitude | Altitude | Speed | Heading |
|---|---|---|---|---|---|
| 2026-04-24 07:22 | 25.55968 | 54.44955 | 37838 ft | 433 kts | 174° |
| 2026-04-24 07:22 | 25.53093 | 54.45501 | 37547 ft | 409 kts | 188° |
| 2026-04-24 07:22 | 25.50323 | 54.45335 | 37107 ft | 392 kts | 199° |
| 2026-04-24 07:22 | 25.47727 | 54.44608 | 36623 ft | 379 kts | 209° |
| 2026-04-24 07:23 | 25.45366 | 54.43420 | 36179 ft | 367 kts | 218° |
| 2026-04-24 07:23 | 25.43298 | 54.41845 | 35772 ft | 356 kts | 227° |
| 2026-04-24 07:23 | 25.41572 | 54.39944 | 35351 ft | 346 kts | 237° |
| 2026-04-24 07:23 | 25.40214 | 54.37781 | 34940 ft | 339 kts | 246° |
| 2026-04-24 07:24 | 25.39244 | 54.35430 | 34523 ft | 334 kts | 254° |
| 2026-04-24 07:24 | 25.38590 | 54.32973 | 34095 ft | 332 kts | 258° |
| 2026-04-24 07:24 | 25.38258 | 54.31288 | 33792 ft | 332 kts | 261° |
| 2026-04-24 07:24 | 25.38037 | 54.27940 | 33147 ft | 330 kts | 276° |
| 2026-04-24 07:25 | 25.38317 | 54.26258 | 32829 ft | 328 kts | 282° |
| 2026-04-24 07:25 | 25.38838 | 54.23800 | 32352 ft | 329 kts | 282° |
| 2026-04-24 07:25 | 25.39345 | 54.21341 | 31949 ft | 327 kts | 281° |
| 2026-04-24 07:25 | 25.39841 | 54.18896 | 31545 ft | 326 kts | 281° |
| 2026-04-24 07:26 | 25.40332 | 54.16449 | 31139 ft | 325 kts | 281° |
| 2026-04-24 07:26 | 25.40818 | 54.14008 | 30724 ft | 325 kts | 281° |
| 2026-04-24 07:26 | 25.41302 | 54.11567 | 30322 ft | 325 kts | 281° |
| 2026-04-24 07:26 | 25.41785 | 54.09127 | 29930 ft | 325 kts | 281° |
| 2026-04-24 07:27 | 25.42265 | 54.06692 | 29496 ft | 323 kts | 281° |
| 2026-04-24 07:27 | 25.42744 | 54.04272 | 29100 ft | 321 kts | 281° |
| 2026-04-24 07:27 | 25.43295 | 54.01890 | 28700 ft | 319 kts | 283° |
| 2026-04-24 07:27 | 25.43896 | 53.99529 | 28316 ft | 318 kts | 284° |
| 2026-04-24 07:28 | 25.44502 | 53.97194 | 27978 ft | 315 kts | 284° |
| 2026-04-24 07:28 | 25.45071 | 53.94866 | 27605 ft | 313 kts | 283° |
| 2026-04-24 07:28 | 25.45618 | 53.92540 | 27160 ft | 313 kts | 282° |
| 2026-04-24 07:28 | 25.46251 | 53.90157 | 26219 ft | 335 kts | 291° |
| 2026-04-24 07:29 | 25.47491 | 53.87865 | 25486 ft | 364 kts | 305° |
| 2026-04-24 07:29 | 25.49300 | 53.85726 | 24463 ft | 399 kts | 315° |
| 2026-04-24 07:29 | 25.51638 | 53.83832 | 23487 ft | 432 kts | 326° |
| 2026-04-24 07:29 | 25.54419 | 53.82413 | 23066 ft | 447 kts | 340° |
| 2026-04-24 07:30 | 25.57501 | 53.81872 | 22713 ft | 454 kts | 357° |
| 2026-04-24 07:30 | 25.60640 | 53.82325 | 22346 ft | 458 kts | 13° |
| 2026-04-24 07:30 | 25.63576 | 53.83696 | 22023 ft | 461 kts | 29° |
| 2026-04-24 07:30 | 25.66089 | 53.85909 | 21719 ft | 463 kts | 45° |
| 2026-04-24 07:31 | 25.67944 | 53.88800 | 21439 ft | 462 kts | 63° |
| 2026-04-24 07:31 | 25.69042 | 53.92140 | 21159 ft | 460 kts | 77° |
| 2026-04-24 07:31 | 25.69342 | 53.95646 | 20851 ft | 456 kts | 94° |
| 2026-04-24 07:31 | 25.69008 | 53.99116 | 20437 ft | 453 kts | 98° |
| 2026-04-24 07:32 | 25.68609 | 54.02586 | 20111 ft | 453 kts | 98° |
| 2026-04-24 07:32 | 25.68221 | 54.06037 | 19887 ft | 450 kts | 97° |
| 2026-04-24 07:32 | 25.67857 | 54.09460 | 19662 ft | 447 kts | 97° |
| 2026-04-24 07:32 | 25.67511 | 54.12888 | 19386 ft | 446 kts | 97° |
| 2026-04-24 07:33 | 25.67176 | 54.16312 | 19031 ft | 447 kts | 96° |
| 2026-04-24 07:33 | 25.66846 | 54.19738 | 18761 ft | 447 kts | 96° |
| 2026-04-24 07:33 | 25.66517 | 54.23159 | 18530 ft | 445 kts | 96° |
| 2026-04-24 07:33 | 25.66187 | 54.26566 | 18329 ft | 443 kts | 96° |
| 2026-04-24 07:34 | 25.65857 | 54.29950 | 18113 ft | 441 kts | 96° |
| 2026-04-24 07:34 | 25.65421 | 54.33306 | 17865 ft | 439 kts | 102° |
| 2026-04-24 07:34 | 25.64676 | 54.36570 | 17611 ft | 437 kts | 109° |
| 2026-04-24 07:34 | 25.63686 | 54.39740 | 17398 ft | 434 kts | 110° |
| 2026-04-24 07:35 | 25.62689 | 54.42883 | 17181 ft | 432 kts | 110° |
| 2026-04-24 07:35 | 25.61703 | 54.46026 | 16969 ft | 430 kts | 110° |
| 2026-04-24 07:35 | 25.60733 | 54.49152 | 16764 ft | 428 kts | 110° |
| 2026-04-24 07:35 | 25.59774 | 54.52269 | 16569 ft | 426 kts | 110° |
| 2026-04-24 07:36 | 25.58823 | 54.55367 | 16391 ft | 424 kts | 110° |
| 2026-04-24 07:36 | 25.57887 | 54.58416 | 16218 ft | 404 kts | 110° |
| 2026-04-24 07:36 | 25.56993 | 54.61265 | 16049 ft | 378 kts | 111° |
| 2026-04-24 07:36 | 25.56135 | 54.63921 | 15894 ft | 357 kts | 111° |
| 2026-04-24 07:37 | 25.55315 | 54.66440 | 15783 ft | 339 kts | 111° |
| 2026-04-24 07:37 | 25.54526 | 54.68862 | 15724 ft | 331 kts | 111° |
| 2026-04-24 07:37 | 25.53764 | 54.71210 | 15593 ft | 318 kts | 111° |
| 2026-04-24 07:37 | 25.53021 | 54.73505 | 15469 ft | 318 kts | 111° |
| 2026-04-24 07:38 | 25.52273 | 54.75809 | 15474 ft | 319 kts | 111° |
| 2026-04-24 07:38 | 25.51526 | 54.78115 | 15480 ft | 319 kts | 111° |
| 2026-04-24 07:38 | 25.50793 | 54.80390 | 15382 ft | 310 kts | 111° |
| 2026-04-24 07:38 | 25.50076 | 54.82623 | 15075 ft | 306 kts | 111° |
| 2026-04-24 07:39 | 25.49365 | 54.84835 | 14719 ft | 305 kts | 112° |
| 2026-04-24 07:39 | 25.48657 | 54.87038 | 14377 ft | 303 kts | 112° |
| 2026-04-24 07:39 | 25.47953 | 54.89225 | 14060 ft | 300 kts | 112° |
| 2026-04-24 07:39 | 25.47256 | 54.91390 | 13738 ft | 297 kts | 112° |
| 2026-04-24 07:40 | 25.46565 | 54.93535 | 13363 ft | 295 kts | 112° |
| 2026-04-24 07:40 | 25.45875 | 54.95674 | 12961 ft | 294 kts | 112° |
| 2026-04-24 07:40 | 25.45186 | 54.97808 | 12565 ft | 294 kts | 112° |
| 2026-04-24 07:40 | 25.44433 | 54.99880 | 12129 ft | 287 kts | 124° |
| 2026-04-24 07:41 | 25.43092 | 55.01456 | 11581 ft | 279 kts | 147° |
| 2026-04-24 07:41 | 25.41513 | 55.02726 | 11123 ft | 281 kts | 147° |
| 2026-04-24 07:41 | 25.39948 | 55.04003 | 10797 ft | 278 kts | 147° |
| 2026-04-24 07:41 | 25.38924 | 55.04841 | 10582 ft | 276 kts | 147° |
| 2026-04-24 07:42 | 25.35463 | 55.07682 | 10001 ft | 274 kts | 147° |
| 2026-04-24 07:42 | 25.33933 | 55.08940 | 9998 ft | 275 kts | 147° |
| 2026-04-24 07:42 | 25.32419 | 55.10187 | 9995 ft | 275 kts | 147° |
| 2026-04-24 07:43 | 25.30888 | 55.11447 | 9988 ft | 274 kts | 147° |
| 2026-04-24 07:43 | 25.29361 | 55.12708 | 9987 ft | 274 kts | 146° |
| 2026-04-24 07:43 | 25.27873 | 55.14027 | 9986 ft | 274 kts | 144° |
| 2026-04-24 07:43 | 25.26408 | 55.15369 | 9988 ft | 274 kts | 144° |
| 2026-04-24 07:44 | 25.24943 | 55.16714 | 9983 ft | 274 kts | 144° |
| 2026-04-24 07:44 | 25.23474 | 55.18057 | 9989 ft | 274 kts | 144° |
| 2026-04-24 07:44 | 25.22003 | 55.19399 | 9986 ft | 275 kts | 144° |
| 2026-04-24 07:44 | 25.20525 | 55.20745 | 9978 ft | 275 kts | 143° |
| 2026-04-24 07:45 | 25.19049 | 55.22089 | 9979 ft | 275 kts | 143° |
| 2026-04-24 07:45 | 25.17575 | 55.23429 | 9994 ft | 275 kts | 143° |
| 2026-04-24 07:45 | 25.16096 | 55.24772 | 9990 ft | 276 kts | 143° |
| 2026-04-24 07:45 | 25.14615 | 55.26114 | 9991 ft | 275 kts | 143° |
| 2026-04-24 07:46 | 25.13136 | 55.27455 | 9990 ft | 275 kts | 144° |
| 2026-04-24 07:46 | 25.11655 | 55.28796 | 9986 ft | 275 kts | 144° |
| 2026-04-24 07:46 | 25.10144 | 55.30047 | 9983 ft | 268 kts | 156° |
| 2026-04-24 07:46 | 25.08365 | 55.30504 | 9993 ft | 264 kts | 186° |
| 2026-04-24 07:47 | 25.06606 | 55.30034 | 9939 ft | 259 kts | 207° |
| 2026-04-24 07:47 | 25.05047 | 55.29048 | 9733 ft | 258 kts | 213° |
| 2026-04-24 07:47 | 25.03524 | 55.28010 | 9465 ft | 256 kts | 213° |
| 2026-04-24 07:47 | 25.02019 | 55.26983 | 9092 ft | 255 kts | 213° |
| 2026-04-24 07:48 | 25.00503 | 55.25956 | 8648 ft | 256 kts | 212° |
| 2026-04-24 07:48 | 24.98985 | 55.24936 | 8250 ft | 256 kts | 212° |
| 2026-04-24 07:48 | 24.97469 | 55.23922 | 7920 ft | 254 kts | 212° |
| 2026-04-24 07:48 | 24.95968 | 55.22918 | 7534 ft | 252 kts | 211° |
| 2026-04-24 07:49 | 24.94449 | 55.21903 | 7161 ft | 251 kts | 211° |
| 2026-04-24 07:49 | 24.92967 | 55.20916 | 6883 ft | 247 kts | 211° |
| 2026-04-24 07:49 | 24.91496 | 55.19937 | 6464 ft | 249 kts | 211° |
| 2026-04-24 07:49 | 24.90021 | 55.18955 | 6121 ft | 247 kts | 211° |
| 2026-04-24 07:50 | 24.88534 | 55.17967 | 5656 ft | 251 kts | 210° |
| 2026-04-24 07:50 | 24.87044 | 55.16977 | 5284 ft | 251 kts | 211° |
| 2026-04-24 07:50 | 24.85536 | 55.15976 | 4800 ft | 254 kts | 211° |
| 2026-04-24 07:50 | 24.84025 | 55.14995 | 4501 ft | 246 kts | 206° |
| 2026-04-24 07:51 | 24.82397 | 55.14608 | 4139 ft | 240 kts | 173° |
| 2026-04-24 07:51 | 24.80868 | 55.15212 | 3877 ft | 232 kts | 146° |
| 2026-04-24 07:51 | 24.79713 | 55.16381 | 3566 ft | 227 kts | 126° |
| 2026-04-24 07:51 | 24.78843 | 55.17854 | 3196 ft | 227 kts | 120° |
| 2026-04-24 07:52 | 24.78044 | 55.19331 | 3022 ft | 231 kts | 119° |
| 2026-04-24 07:52 | 24.77212 | 55.20856 | 3016 ft | 232 kts | 119° |
| 2026-04-24 07:52 | 24.76392 | 55.22370 | 3008 ft | 229 kts | 119° |
| 2026-04-24 07:52 | 24.75578 | 55.23861 | 2996 ft | 227 kts | 120° |
| 2026-04-24 07:53 | 24.74758 | 55.25348 | 2994 ft | 227 kts | 120° |
| 2026-04-24 07:53 | 24.73939 | 55.26826 | 3007 ft | 226 kts | 121° |
| 2026-04-24 07:53 | 24.73122 | 55.28301 | 2998 ft | 225 kts | 121° |
| 2026-04-24 07:53 | 24.72306 | 55.29770 | 3008 ft | 225 kts | 121° |
| 2026-04-24 07:54 | 24.71493 | 55.31238 | 3006 ft | 225 kts | 122° |
| 2026-04-24 07:54 | 24.70677 | 55.32703 | 3015 ft | 225 kts | 122° |
| 2026-04-24 07:54 | 24.69861 | 55.34168 | 3018 ft | 225 kts | 122° |
| 2026-04-24 07:54 | 24.69043 | 55.35638 | 3018 ft | 225 kts | 122° |
| 2026-04-24 07:55 | 24.68277 | 55.37120 | 2999 ft | 218 kts | 110° |
| 2026-04-24 07:55 | 24.68189 | 55.38723 | 3004 ft | 211 kts | 73° |
| 2026-04-24 07:55 | 24.68888 | 55.40116 | 3026 ft | 210 kts | 47° |
| 2026-04-24 07:55 | 24.70033 | 55.41113 | 3028 ft | 211 kts | 32° |
| 2026-04-24 07:56 | 24.71302 | 55.41960 | 3030 ft | 215 kts | 31° |
| 2026-04-24 07:56 | 24.72617 | 55.42739 | 3008 ft | 214 kts | 17° |
| 2026-04-24 07:56 | 24.74069 | 55.42787 | 3009 ft | 211 kts | 340° |
| 2026-04-24 07:56 | 24.75244 | 55.41885 | 3012 ft | 207 kts | 308° |
| 2026-04-24 07:57 | 24.76067 | 55.40599 | 3054 ft | 205 kts | 304° |
| 2026-04-24 07:57 | 24.76836 | 55.39302 | 3035 ft | 198 kts | 303° |
| 2026-04-24 07:57 | 24.77550 | 55.38036 | 3013 ft | 193 kts | 302° |
| 2026-04-24 07:57 | 24.78246 | 55.36782 | 3009 ft | 192 kts | 302° |
| 2026-04-24 07:58 | 24.78937 | 55.35530 | 3018 ft | 191 kts | 302° |
| 2026-04-24 07:58 | 24.79628 | 55.34279 | 3017 ft | 191 kts | 302° |
| 2026-04-24 07:58 | 24.80305 | 55.33051 | 3027 ft | 181 kts | 302° |
| 2026-04-24 07:58 | 24.80939 | 55.31903 | 2927 ft | 173 kts | 302° |
| 2026-04-24 07:59 | 24.81555 | 55.30789 | 2699 ft | 166 kts | 302° |
| 2026-04-24 07:59 | 24.82153 | 55.29705 | 2518 ft | 165 kts | 302° |
| 2026-04-24 07:59 | 24.82746 | 55.28632 | 2303 ft | 162 kts | 303° |
| 2026-04-24 07:59 | 24.83307 | 55.27612 | 2075 ft | 146 kts | 302° |
| 2026-04-24 08:00 | 24.83802 | 55.26716 | 1912 ft | 134 kts | 304° |
| 2026-04-24 08:00 | 24.84286 | 55.25840 | 1744 ft | 135 kts | 306° |
| 2026-04-24 08:00 | 24.84781 | 55.24944 | 1571 ft | 138 kts | 304° |
| 2026-04-24 08:00 | 24.85272 | 55.24052 | 1383 ft | 133 kts | 306° |
| 2026-04-24 08:01 | 24.85741 | 55.23202 | 1220 ft | 129 kts | 307° |
| 2026-04-24 08:01 | 24.86210 | 55.22353 | 1067 ft | 131 kts | 307° |
| 2026-04-24 08:01 | 24.86689 | 55.21486 | 914 ft | 136 kts | 306° |
| 2026-04-24 08:01 | 24.87197 | 55.20566 | 742 ft | 142 kts | 306° |
| 2026-04-24 08:02 | 24.87695 | 55.19655 | 570 ft | 142 kts | 305° |
| 2026-04-24 08:02 | 24.88225 | 55.18702 | 403 ft | 148 kts | 306° |
| 2026-04-24 08:02 | 24.88746 | 55.17746 | 218 ft | 145 kts | 302° |
| 2026-04-24 08:02 | 24.89223 | 55.16910 | 162 ft | 124 kts | 296° |
| 2026-04-24 08:03 | 24.89604 | 55.16214 | 163 ft | 85 kts | 300° |
| 2026-04-24 08:03 | 24.89765 | 55.15875 | 162 ft | 36 kts | 288° |
| 2026-04-24 08:03 | 24.89784 | 55.15682 | 162 ft | 19 kts | 271° |
| 2026-04-24 08:03 | 24.89784 | 55.15582 | 162 ft | 9 kts | 270° |
| 2026-04-24 08:04 | 24.89784 | 55.15504 | 163 ft | 11 kts | 264° |
| 2026-04-24 08:04 | 24.89739 | 55.15432 | 163 ft | 12 kts | 232° |
| 2026-04-24 08:04 | 24.89751 | 55.15344 | 163 ft | 13 kts | 300° |
| 2026-04-24 08:04 | 24.89802 | 55.15253 | 163 ft | 15 kts | 302° |
| 2026-04-24 08:05 | 24.89858 | 55.15154 | 163 ft | 16 kts | 302° |
| 2026-04-24 08:05 | 24.89916 | 55.15048 | 163 ft | 16 kts | 301° |
| 2026-04-24 08:05 | 24.89955 | 55.14933 | 163 ft | 17 kts | 257° |
| 2026-04-24 08:05 | 24.89868 | 55.14861 | 163 ft | 13 kts | 210° |
| 2026-04-24 08:06 | 24.89818 | 55.14826 | 163 ft | 9 kts | 212° |
| 2026-04-24 08:06 | 24.89757 | 55.14786 | 163 ft | 11 kts | 210° |
| 2026-04-24 08:06 | 24.89687 | 55.14738 | 164 ft | 13 kts | 211° |
| 2026-04-24 08:06 | 24.89613 | 55.14688 | 166 ft | 12 kts | 211° |
| 2026-04-24 08:07 | 24.89590 | 55.14628 | 164 ft | 5 kts | 301° |
| 2026-04-24 08:07 | 24.89608 | 55.14597 | 164 ft | 5 kts | 301° |
| 2026-04-24 08:07 | 24.89620 | 55.14576 | 164 ft | 2 kts | 300° |
| 2026-04-24 08:07 | 24.89623 | 55.14570 | 164 ft | 0 kts | 301° |